Time;durP1;ratioP1;P1;durP2;ratioP2;P2;SDS_P1;SDS_P2;PMS_P1;PMS_P2;Temp;Humidity;BMP_temperature;BMP_pressure;BME280_temperature;BME280_humidity;BME280_pressure;Samples;Min_cycle;Max_cycle;Signal;HPM_P1;HPM_P2
2021/04/17 00:02:37;;;;;;;3.60;3.20;;;;;;;4.75;96.86;99777.13;10543489;28;20193;-73
2021/04/17 00:07:56;;;;;;;2.57;1.80;;;;;;;4.79;98.39;99772.56;10544643;28;20178;-74
2021/04/17 00:13:16;;;;;;;15.27;3.17;;;;;;;4.69;100.00;99777.69;10529021;28;20619;-75
2021/04/17 00:18:35;;;;;;;3.17;2.03;;;;;;;4.69;99.49;99766.81;10527273;28;20237;-75
2021/04/17 00:23:54;;;;;;;2.90;1.50;;;;;;;4.61;99.31;99760.34;10543982;28;20178;-74
2021/04/17 00:29:13;;;;;;;1.73;1.63;;;;;;;4.59;97.01;99756.38;10543421;28;20257;-74
2021/04/17 00:34:32;;;;;;;1.90;1.80;;;;;;;4.39;97.89;99749.94;10527061;28;20634;-74
2021/04/17 00:39:51;;;;;;;1.63;1.53;;;;;;;4.31;97.73;99750.84;10542895;28;20201;-74
2021/04/17 00:45:11;;;;;;;4.50;0.97;;;;;;;4.24;99.80;99744.41;10528133;28;20190;-74
2021/04/17 00:50:30;;;;;;;1.93;1.47;;;;;;;4.21;100.00;99743.13;10541607;28;20182;-76
2021/04/17 00:55:49;;;;;;;3.90;1.60;;;;;;;3.91;100.00;99741.00;10542418;28;20197;-75
2021/04/17 01:01:09;;;;;;;2.13;1.93;;;;;;;3.73;100.00;99741.53;10541385;28;20178;-75
2021/04/17 01:06:42;;;;;;;1.93;1.20;;;;;;;3.61;100.00;99741.53;10542073;28;20170;-75
2021/04/17 01:12:29;;;;;;;1.50;1.40;;;;;;;3.56;100.00;99739.00;10542009;28;20579;-74
2021/04/17 01:17:52;;;;;;;1.43;1.23;;;;;;;3.62;100.00;99734.97;10540156;28;20206;-74
2021/04/17 01:23:27;;;;;;;1.87;1.77;;;;;;;3.67;100.00;99740.97;10526521;28;20697;-74
2021/04/17 01:28:54;;;;;;;1.60;1.13;;;;;;;3.61;100.00;99736.09;10540916;28;20288;-73
2021/04/17 01:34:14;;;;;;;3.40;2.87;;;;;;;3.32;100.00;99733.50;10524646;28;20200;-74
2021/04/17 01:39:34;;;;;;;3.00;2.60;;;;;;;3.25;100.00;99736.00;10525074;28;20206;-73
2021/04/17 01:44:53;;;;;;;1.37;1.13;;;;;;;3.16;100.00;99729.84;10525246;28;20174;-74
2021/04/17 01:50:14;;;;;;;3.90;1.80;;;;;;;2.92;100.00;99737.13;10539283;28;20165;-74
2021/04/17 01:55:35;;;;;;;1.03;0.93;;;;;;;2.78;100.00;99718.38;10540263;28;20190;-73
2021/04/17 02:00:56;;;;;;;1.77;1.17;;;;;;;2.61;100.00;99729.38;10539058;28;20174;-74
2021/04/17 02:06:16;;;;;;;1.33;0.70;;;;;;;2.59;100.00;99726.19;10540182;28;20265;-74
2021/04/17 02:11:35;;;;;;;2.43;1.13;;;;;;;2.57;100.00;99722.22;10524831;28;20219;-74
2021/04/17 02:17:08;;;;;;;2.03;1.40;;;;;;;2.44;100.00;99717.88;10537710;28;20214;-74
2021/04/17 02:22:30;;;;;;;1.40;1.23;;;;;;;2.56;100.00;99716.00;10539406;28;20252;-74
2021/04/17 02:27:50;;;;;;;1.70;1.30;;;;;;;2.58;100.00;99711.06;10539209;28;20213;-74
2021/04/17 02:33:09;;;;;;;1.20;1.00;;;;;;;2.45;100.00;99703.94;10537996;28;20182;-74
2021/04/17 02:38:28;;;;;;;2.57;1.53;;;;;;;2.72;100.00;99703.41;10538985;28;20297;-74
2021/04/17 02:43:47;;;;;;;0.97;0.87;;;;;;;2.79;100.00;99700.97;10538696;28;20217;-75
2021/04/17 02:49:06;;;;;;;1.00;0.87;;;;;;;2.68;100.00;99698.97;10522517;28;20252;-74
2021/04/17 02:54:25;;;;;;;1.30;1.00;;;;;;;2.56;100.00;99705.16;10538476;28;20190;-74
2021/04/17 02:59:44;;;;;;;1.30;1.20;;;;;;;2.69;100.00;99704.06;10538228;28;20215;-74
2021/04/17 03:05:07;;;;;;;1.10;0.90;;;;;;;2.82;100.00;99702.22;10537294;28;20609;-74
2021/04/17 03:10:26;;;;;;;7.77;2.50;;;;;;;2.83;100.00;99691.00;10538480;28;20202;-73
2021/04/17 03:15:45;;;;;;;2.47;1.27;;;;;;;2.75;100.00;99691.88;10537633;28;20229;-74
2021/04/17 03:21:05;;;;;;;1.53;1.37;;;;;;;2.76;100.00;99693.47;10523119;28;20182;-75
2021/04/17 03:26:24;;;;;;;2.60;1.93;;;;;;;2.64;100.00;99688.00;10540479;28;20577;-74
2021/04/17 03:31:44;;;;;;;7.43;2.47;;;;;;;2.61;100.00;99682.44;10544869;28;20166;-74
2021/04/17 03:37:03;;;;;;;1.00;0.90;;;;;;;2.81;100.00;99666.09;10530426;28;20210;-74
2021/04/17 03:42:22;;;;;;;3.97;1.53;;;;;;;2.81;100.00;99666.09;10530412;28;20174;-74
2021/04/17 03:47:41;;;;;;;2.13;1.87;;;;;;;2.71;100.00;99669.22;10544058;28;20186;-74
2021/04/17 03:53:00;;;;;;;3.57;1.20;;;;;;;2.79;100.00;99671.06;10545265;28;20205;-74
2021/04/17 03:58:19;;;;;;;6.50;1.37;;;;;;;2.71;100.00;99665.69;10544638;28;20245;-73
2021/04/17 04:03:38;;;;;;;1.07;0.97;;;;;;;2.69;100.00;99671.47;10543913;28;20636;-73
2021/04/17 04:08:58;;;;;;;11.63;1.13;;;;;;;2.62;100.00;99673.94;10544864;28;20170;-74
2021/04/17 04:14:17;;;;;;;1.37;1.23;;;;;;;2.74;100.00;99679.44;10544607;28;20256;-74
2021/04/17 04:19:36;;;;;;;1.63;1.53;;;;;;;2.71;100.00;99688.25;10526525;28;20233;-74
2021/04/17 04:24:55;;;;;;;1.60;1.33;;;;;;;2.63;100.00;99694.53;10544099;28;20174;-74
2021/04/17 04:30:14;;;;;;;4.00;1.53;;;;;;;2.67;100.00;99686.53;10527549;28;20600;-74
2021/04/17 04:35:34;;;;;;;1.13;1.03;;;;;;;2.78;100.00;99682.28;10526546;28;20204;-74
2021/04/17 04:40:53;;;;;;;1.60;1.50;;;;;;;2.69;100.00;99698.63;10542542;28;20181;-74
2021/04/17 04:46:12;;;;;;;2.40;1.40;;;;;;;2.54;100.00;99701.97;10541738;28;20174;-73
2021/04/17 04:51:31;;;;;;;1.00;0.87;;;;;;;2.70;100.00;99697.50;10542867;28;20225;-73
2021/04/17 04:56:50;;;;;;;1.10;1.00;;;;;;;2.61;100.00;99706.88;10542592;28;20680;-74
2021/04/17 05:02:09;;;;;;;2.00;1.13;;;;;;;2.56;100.00;99704.34;10541119;28;20182;-75
2021/04/17 05:07:28;;;;;;;1.30;1.17;;;;;;;2.79;100.00;99698.25;10526998;28;20213;-75
2021/04/17 05:12:47;;;;;;;1.20;0.70;;;;;;;2.91;100.00;99703.72;10541810;28;20174;-74
2021/04/17 05:18:06;;;;;;;1.53;1.43;;;;;;;3.11;100.00;99710.25;10524359;28;20205;-74
2021/04/17 05:23:25;;;;;;;3.43;1.67;;;;;;;3.18;100.00;99709.38;10541687;28;20186;-74
2021/04/17 05:28:43;;;;;;;1.53;1.43;;;;;;;3.34;100.00;99701.34;10525720;28;20222;-76
2021/04/17 05:34:05;;;;;;;3.50;1.60;;;;;;;3.55;100.00;99693.94;10540071;28;20178;-76
2021/04/17 05:39:25;;;;;;;12.67;1.50;;;;;;;3.62;100.00;99700.38;10540814;28;20209;-75
2021/04/17 05:44:43;;;;;;;1.73;1.63;;;;;;;3.69;100.00;99697.09;10525655;28;20621;-77
2021/04/17 05:50:03;;;;;;;3.43;1.77;;;;;;;3.82;100.00;99701.41;10538568;28;20198;-75
2021/04/17 05:55:22;;;;;;;1.10;0.80;;;;;;;3.92;100.00;99709.91;10525074;28;20643;-75
2021/04/17 06:00:41;;;;;;;2.43;2.20;;;;;;;4.18;100.00;99700.28;10524874;28;20174;-76
2021/04/17 06:06:01;;;;;;;2.23;1.47;;;;;;;4.54;100.00;99700.19;10539811;28;20181;-76
2021/04/17 06:11:20;;;;;;;1.50;1.40;;;;;;;4.88;100.00;99705.06;10539892;28;20186;-76
2021/04/17 06:16:39;;;;;;;1.13;1.03;;;;;;;5.17;100.00;99702.78;10523151;28;20201;-75
2021/04/17 06:21:58;;;;;;;1.33;1.23;;;;;;;5.40;100.00;99694.81;10524566;28;20186;-75
2021/04/17 06:27:17;;;;;;;1.10;0.90;;;;;;;5.61;99.46;99702.41;10523748;28;20578;-76
2021/04/17 06:32:36;;;;;;;2.83;1.50;;;;;;;5.79;95.40;99709.16;10538226;28;20178;-76
2021/04/17 06:37:55;;;;;;;1.97;1.13;;;;;;;5.96;93.70;99713.44;10539166;28;20210;-76
2021/04/17 06:43:15;;;;;;;0.90;0.67;;;;;;;6.26;91.03;99709.09;10539084;28;20220;-76
2021/04/17 06:48:37;;;;;;;1.00;0.90;;;;;;;6.45;88.98;99715.41;10537576;28;20170;-76
2021/04/17 06:53:57;;;;;;;3.50;0.80;;;;;;;6.48;88.67;99709.19;10523460;28;20268;-76
2021/04/17 06:59:17;;;;;;;0.90;0.60;;;;;;;6.86;85.20;99704.56;10538543;28;20217;-77
2021/04/17 07:04:36;;;;;;;1.00;0.70;;;;;;;7.56;71.24;99695.78;10545496;28;20174;-75
2021/04/17 07:09:55;;;;;;;2.13;1.70;;;;;;;8.19;65.31;99699.59;10547156;28;20174;-76
2021/04/17 07:15:14;;;;;;;3.30;1.10;;;;;;;8.79;58.07;99711.06;10531625;28;20178;-77
2021/04/17 07:20:33;;;;;;;2.00;1.27;;;;;;;9.25;55.89;99704.16;10544697;28;20206;-76
2021/04/17 07:26:07;;;;;;;1.83;1.20;;;;;;;9.46;54.64;99700.84;10545953;28;20170;-76
2021/04/17 07:31:30;;;;;;;5.17;1.30;;;;;;;9.56;53.50;99695.47;10545022;28;20183;-73
2021/04/17 07:36:54;;;;;;;1.33;0.80;;;;;;;9.82;52.12;99709.84;10545692;28;20213;-73
2021/04/17 07:42:17;;;;;;;1.50;0.73;;;;;;;9.87;51.70;99704.00;10545764;28;20553;-76
2021/04/17 07:47:36;;;;;;;1.00;0.60;;;;;;;9.78;52.45;99702.72;10528991;28;20174;-76
2021/04/17 07:52:55;;;;;;;1.00;0.87;;;;;;;9.40;51.83;99711.38;10545407;28;20606;-73
2021/04/17 07:58:14;;;;;;;1.00;0.70;;;;;;;9.01;54.14;99712.91;10529066;28;20210;-77
2021/04/17 08:03:33;;;;;;;3.10;1.10;;;;;;;9.09;53.80;99717.31;10543861;28;20178;-77
2021/04/17 08:08:54;;;;;;;0.90;0.60;;;;;;;9.28;52.74;99716.34;10544340;28;20166;-77
2021/04/17 08:14:14;;;;;;;1.87;1.17;;;;;;;9.55;50.93;99704.88;10528162;28;20640;-77
2021/04/17 08:19:33;;;;;;;1.30;1.20;;;;;;;10.56;50.92;99702.97;10527267;28;20235;-76
2021/04/17 08:24:53;;;;;;;2.90;0.90;;;;;;;11.26;49.15;99713.16;10528885;28;20182;-74
2021/04/17 08:30:23;;;;;;;1.00;0.80;;;;;;;11.23;46.77;99699.34;10528136;28;20229;-75
2021/04/17 08:35:43;;;;;;;1.30;1.20;;;;;;;11.28;45.84;99710.00;10542010;28;20524;-74
2021/04/17 08:41:02;;;;;;;1.23;1.10;;;;;;;10.99;47.46;99708.31;10543210;28;20178;-76
2021/04/17 08:46:21;;;;;;;2.33;0.87;;;;;;;11.71;46.83;99697.94;10541959;28;20507;-76
2021/04/17 08:51:40;;;;;;;2.17;1.67;;;;;;;11.93;46.72;99697.56;10543038;28;20606;-75
2021/04/17 08:57:02;;;;;;;1.20;0.90;;;;;;;12.37;45.37;99690.44;10526947;28;20197;-75
2021/04/17 09:02:24;;;;;;;3.00;0.90;;;;;;;12.84;43.31;99687.19;10526084;28;20676;-76
2021/04/17 09:07:46;;;;;;;1.70;1.27;;;;;;;12.74;42.43;99688.00;10542404;28;20170;-76
2021/04/17 09:13:20;;;;;;;1.40;1.30;;;;;;;13.72;42.30;99689.16;10526830;28;20531;-75
2021/04/17 09:18:39;;;;;;;1.23;1.13;;;;;;;13.62;40.22;99678.94;10540328;28;20206;-76
2021/04/17 09:23:59;;;;;;;3.20;1.13;;;;;;;13.77;41.38;99685.94;10541467;28;20174;-74
2021/04/17 09:29:26;;;;;;;3.00;1.33;;;;;;;13.24;41.68;99678.38;10541046;28;20624;-75
2021/04/17 09:34:45;;;;;;;1.30;0.90;;;;;;;12.22;42.37;99685.34;10540061;28;20178;-75
2021/04/17 09:40:06;;;;;;;1.43;1.33;;;;;;;11.49;44.04;99688.00;10525339;28;20202;-75
2021/04/17 09:45:30;;;;;;;3.43;1.43;;;;;;;11.55;45.00;99686.50;10540851;28;20252;-74
2021/04/17 09:50:51;;;;;;;1.67;1.07;;;;;;;11.64;46.72;99678.63;10540248;28;20555;-75
2021/04/17 09:56:14;;;;;;;2.83;1.13;;;;;;;11.55;46.46;99678.25;10540427;28;20205;-75
2021/04/17 10:01:33;;;;;;;1.20;1.07;;;;;;;11.07;49.01;99671.38;10539010;28;20186;-76
2021/04/17 10:06:57;;;;;;;1.60;1.50;;;;;;;10.76;51.56;99671.25;10540286;28;20599;-75
2021/04/17 10:12:16;;;;;;;1.50;0.70;;;;;;;10.89;51.13;99669.72;10539968;28;20249;-75
2021/04/17 10:17:35;;;;;;;1.10;0.93;;;;;;;11.05;49.92;99665.47;10522906;28;20205;-76
2021/04/17 10:22:59;;;;;;;2.13;1.23;;;;;;;10.89;50.26;99664.22;10539633;28;20174;-75
2021/04/17 10:28:23;;;;;;;1.30;0.80;;;;;;;11.01;49.78;99656.41;10539124;28;20218;-75
2021/04/17 10:33:44;;;;;;;1.00;0.63;;;;;;;10.58;49.72;99660.13;10538095;28;20667;-75
2021/04/17 10:39:06;;;;;;;2.40;1.33;;;;;;;10.20;51.08;99657.19;10538094;28;20209;-74
2021/04/17 10:44:25;;;;;;;1.00;0.67;;;;;;;10.00;50.70;99653.09;10539224;28;20594;-75
2021/04/17 10:49:44;;;;;;;1.00;0.70;;;;;;;9.69;51.61;99655.56;10521927;28;20593;-76
2021/04/17 10:55:03;;;;;;;1.50;1.17;;;;;;;9.68;52.39;99648.50;10523308;28;20178;-75
2021/04/17 11:00:30;;;;;;;2.70;0.93;;;;;;;9.43;53.44;99644.72;10523017;28;20213;-75
2021/04/17 11:05:50;;;;;;;1.60;1.27;;;;;;;9.31;53.64;99647.75;10523046;28;20166;-75
2021/04/17 11:11:10;;;;;;;1.30;1.00;;;;;;;9.36;53.50;99636.44;10538583;28;20182;-75
2021/04/17 11:16:41;;;;;;;1.50;1.10;;;;;;;9.26;54.06;99637.09;10536868;28;20193;-75
2021/04/17 11:22:22;;;;;;;3.67;1.07;;;;;;;9.40;54.54;99625.47;10538373;28;20189;-75
2021/04/17 11:27:41;;;;;;;1.40;0.80;;;;;;;9.65;54.14;99621.78;10537956;28;20218;-75
2021/04/17 11:33:00;;;;;;;3.70;1.20;;;;;;;9.61;53.36;99620.97;10537069;28;20261;-75
2021/04/17 11:38:20;;;;;;;1.67;1.40;;;;;;;9.84;53.47;99621.53;10537599;28;20217;-76
2021/04/17 11:43:39;;;;;;;3.87;1.33;;;;;;;10.14;52.33;99622.16;10538102;28;20178;-75
2021/04/17 11:48:58;;;;;;;3.33;2.30;;;;;;;10.32;52.04;99617.56;10526201;28;20198;-75
2021/04/17 11:54:17;;;;;;;6.00;2.60;;;;;;;10.45;50.42;99620.38;10530010;28;20174;-74
2021/04/17 11:59:38;;;;;;;2.17;1.37;;;;;;;10.60;51.74;99613.00;10528808;28;20205;-75
2021/04/17 12:04:57;;;;;;;5.90;1.53;;;;;;;10.61;50.97;99609.84;10543587;28;20174;-75
2021/04/17 12:10:17;;;;;;;3.77;1.47;;;;;;;10.87;50.56;99611.50;10544521;28;20170;-75
2021/04/17 12:15:37;;;;;;;2.03;1.87;;;;;;;10.68;51.47;99609.09;10544545;28;20178;-75
2021/04/17 12:20:56;;;;;;;3.87;1.20;;;;;;;10.59;51.14;99611.41;10544328;28;20182;-75
2021/04/17 12:26:15;;;;;;;1.83;1.40;;;;;;;10.35;51.44;99601.09;10544067;28;20182;-76
2021/04/17 12:31:34;;;;;;;1.60;1.50;;;;;;;10.29;52.63;99599.09;10542621;28;20532;-75
2021/04/17 12:36:52;;;;;;;5.40;2.10;;;;;;;10.09;52.85;99595.81;10543657;28;20209;-74
2021/04/17 12:42:11;;;;;;;6.37;2.63;;;;;;;10.19;51.71;99580.56;10543393;28;20248;-75
2021/04/17 12:47:31;;;;;;;1.87;0.90;;;;;;;10.25;51.42;99585.31;10526447;28;20679;-76
2021/04/17 12:52:50;;;;;;;1.30;1.20;;;;;;;10.62;51.59;99585.91;10543008;28;20170;-75
2021/04/17 12:58:08;;;;;;;4.00;1.30;;;;;;;10.93;51.06;99579.72;10541887;28;20205;-75
2021/04/17 13:03:27;;;;;;;3.70;1.97;;;;;;;10.89;50.42;99573.38;10525882;28;20177;-75
2021/04/17 13:08:46;;;;;;;3.80;1.70;;;;;;;10.72;50.85;99569.41;10555872;28;20182;-75
2021/04/17 13:14:05;;;;;;;1.80;1.30;;;;;;;10.62;50.84;99572.91;10542181;28;20539;-75
2021/04/17 13:19:25;;;;;;;2.13;1.57;;;;;;;10.39;52.97;99574.38;10525037;28;20568;-75
2021/04/17 13:24:44;;;;;;;2.07;1.57;;;;;;;9.88;55.31;99572.88;10541664;28;20524;-75
2021/04/17 13:30:06;;;;;;;1.17;1.07;;;;;;;9.92;54.73;99568.22;10525568;28;20320;-74
2021/04/17 13:35:25;;;;;;;1.50;1.03;;;;;;;10.22;54.60;99569.56;10539880;28;20181;-75
2021/04/17 13:40:44;;;;;;;1.40;1.30;;;;;;;10.23;54.03;99564.88;10540377;28;20209;-74
2021/04/17 13:46:03;;;;;;;2.40;1.63;;;;;;;10.17;54.19;99560.94;10539410;28;20174;-75
2021/04/17 13:51:22;;;;;;;1.70;1.60;;;;;;;10.32;54.34;99561.41;10540647;28;20174;-76
2021/04/17 13:56:41;;;;;;;2.43;1.53;;;;;;;10.01;54.66;99546.69;10540249;28;20194;-75
2021/04/17 14:02:02;;;;;;;5.90;1.63;;;;;;;9.64;55.20;99548.78;10538977;28;20178;-75
2021/04/17 14:07:21;;;;;;;1.13;1.00;;;;;;;9.58;53.52;99548.34;10524911;28;20166;-75
2021/04/17 14:12:40;;;;;;;1.20;0.87;;;;;;;9.31;54.19;99548.13;10539163;28;20174;-76
2021/04/17 14:17:59;;;;;;;1.67;0.60;;;;;;;9.45;53.66;99548.22;10522890;28;20209;-75
2021/04/17 14:23:18;;;;;;;1.23;1.10;;;;;;;9.58;53.81;99551.06;10539823;28;20190;-75
2021/04/17 14:28:37;;;;;;;4.30;2.13;;;;;;;9.60;55.31;99558.97;10539056;28;20222;-75
2021/04/17 14:33:57;;;;;;;4.27;1.80;;;;;;;9.35;56.89;99555.22;10522787;28;20173;-76
2021/04/17 14:39:16;;;;;;;1.20;1.00;;;;;;;9.24;59.29;99550.81;10523314;28;20213;-74
2021/04/17 14:44:35;;;;;;;1.30;1.17;;;;;;;8.68;64.05;99554.94;10523974;28;20253;-75
2021/04/17 14:49:56;;;;;;;4.67;1.43;;;;;;;8.65;64.22;99551.00;10522331;28;20197;-74
2021/04/17 14:55:16;;;;;;;1.93;1.47;;;;;;;8.75;66.19;99553.84;10539082;28;20173;-75
2021/04/17 15:00:36;;;;;;;4.00;2.70;;;;;;;8.77;63.86;99545.22;10538291;28;20237;-75
2021/04/17 15:05:55;;;;;;;18.03;1.87;;;;;;;8.74;63.19;99543.25;10538631;28;20186;-76
2021/04/17 15:11:14;;;;;;;1.57;0.87;;;;;;;8.36;64.65;99543.59;10523398;28;20182;-75
2021/04/17 15:16:33;;;;;;;1.43;1.10;;;;;;;7.97;66.08;99544.22;10521816;28;20198;-76
2021/04/17 15:21:52;;;;;;;1.00;0.70;;;;;;;7.79;67.25;99545.94;10540142;28;20628;-76
2021/04/17 15:27:11;;;;;;;7.60;1.60;;;;;;;7.75;67.66;99553.31;10546229;28;20221;-75
2021/04/17 15:32:31;;;;;;;1.40;0.97;;;;;;;7.64;68.21;99552.34;10529852;28;20166;-75
2021/04/17 15:37:50;;;;;;;0.97;0.80;;;;;;;7.86;67.06;99558.94;10530469;28;20604;-75
2021/04/17 15:43:10;;;;;;;1.33;1.00;;;;;;;7.92;67.17;99553.56;10545654;28;20166;-76
2021/04/17 15:48:29;;;;;;;1.30;0.83;;;;;;;7.81;68.16;99546.34;10544460;28;20205;-74
2021/04/17 15:53:48;;;;;;;1.70;1.13;;;;;;;7.63;68.98;99541.78;10530124;28;20170;-75
2021/04/17 16:15:39;;;;;;;1.87;1.77;;;;;;;7.43;65.68;99538.31;10544876;28;20261;-75
2021/04/17 16:20:59;;;;;;;1.03;0.93;;;;;;;7.45;66.73;99536.03;10544252;28;20217;-74
2021/04/17 16:26:17;;;;;;;1.23;0.97;;;;;;;7.43;68.14;99535.59;10528590;28;20692;-75
2021/04/17 16:31:38;;;;;;;1.30;1.03;;;;;;;7.38;69.42;99527.69;10527055;28;20182;-74
2021/04/17 16:36:57;;;;;;;0.90;0.80;;;;;;;7.38;71.86;99511.28;10542717;28;20202;-74
2021/04/17 16:42:15;;;;;;;3.00;1.57;;;;;;;7.21;76.28;99509.06;10543385;28;20174;-74
2021/04/17 16:47:35;;;;;;;2.50;1.40;;;;;;;7.06;78.84;99503.75;10542048;28;20565;-74
2021/04/17 16:52:54;;;;;;;2.60;2.27;;;;;;;7.19;78.63;99511.34;10543032;28;20182;-74
2021/04/17 16:58:13;;;;;;;1.60;1.10;;;;;;;7.14;78.86;99510.91;10527382;28;20213;-74
2021/04/17 17:03:32;;;;;;;40.07;2.17;;;;;;;7.29;77.35;99521.69;10541649;28;20177;-74
2021/04/17 17:08:51;;;;;;;1.77;1.20;;;;;;;7.18;77.86;99520.75;10527166;28;20203;-74
2021/04/17 17:14:10;;;;;;;1.43;1.20;;;;;;;7.00;79.01;99518.84;10527077;28;20170;-74
2021/04/17 17:19:29;;;;;;;1.50;1.30;;;;;;;7.02;79.51;99526.72;10540278;28;20663;-74
2021/04/17 17:24:48;;;;;;;2.43;1.90;;;;;;;6.99;80.67;99521.97;10526353;28;20675;-74
2021/04/17 17:30:10;;;;;;;2.00;1.80;;;;;;;6.91;82.75;99525.72;10541051;28;20218;-74
2021/04/17 17:35:30;;;;;;;5.77;2.27;;;;;;;7.00;82.78;99539.97;10540120;28;20617;-75
2021/04/17 17:40:49;;;;;;;1.13;1.03;;;;;;;7.08;82.64;99536.19;10540484;28;20205;-75
2021/04/17 17:46:09;;;;;;;3.20;2.90;;;;;;;6.95;83.27;99548.44;10524192;28;20199;-76
2021/04/17 17:51:28;;;;;;;1.73;1.63;;;;;;;6.84;85.42;99550.22;10540892;28;20178;-75
2021/04/17 17:56:47;;;;;;;5.23;2.70;;;;;;;6.82;88.31;99560.72;10540706;28;20289;-75
2021/04/17 18:02:06;;;;;;;3.33;1.57;;;;;;;6.65;89.39;99563.91;10539221;28;20206;-76
2021/04/17 18:07:25;;;;;;;2.37;2.10;;;;;;;6.71;92.50;99562.47;10540108;28;20182;-76
2021/04/17 18:12:44;;;;;;;6.10;2.17;;;;;;;6.51;98.55;99560.91;10539876;28;20229;-76
2021/04/17 18:18:03;;;;;;;1.97;1.83;;;;;;;6.22;100.00;99553.28;10538278;28;20583;-76
2021/04/17 18:23:22;;;;;;;1.57;1.30;;;;;;;6.23;100.00;99565.78;10539442;28;20169;-76
2021/04/17 18:28:41;;;;;;;1.73;1.13;;;;;;;6.11;100.00;99563.22;10523717;28;20217;-77
2021/04/17 18:34:00;;;;;;;1.33;1.23;;;;;;;5.99;100.00;99568.00;10538407;28;20173;-76
2021/04/17 18:39:19;;;;;;;0.87;0.60;;;;;;;5.96;100.00;99572.25;10523503;28;20660;-78
2021/04/17 18:44:39;;;;;;;2.23;2.03;;;;;;;5.93;100.00;99572.19;10539296;28;20549;-76
2021/04/17 18:49:58;;;;;;;1.40;0.90;;;;;;;5.98;100.00;99578.13;10537787;28;20613;-76
2021/04/17 18:55:17;;;;;;;1.23;1.10;;;;;;;5.93;100.00;99577.63;10539049;28;20174;-76
2021/04/17 19:00:36;;;;;;;3.43;1.63;;;;;;;5.99;100.00;99587.91;10546678;28;20284;-76
2021/04/17 19:05:55;;;;;;;1.67;1.27;;;;;;;5.91;100.00;99591.63;10547292;28;20544;-76
2021/04/17 19:11:15;;;;;;;2.97;1.03;;;;;;;5.88;100.00;99592.34;10531902;28;20256;-75
2021/04/17 19:16:34;;;;;;;1.60;1.33;;;;;;;5.76;100.00;99584.25;10530043;28;20658;-76
2021/04/17 19:21:53;;;;;;;1.73;1.50;;;;;;;5.81;100.00;99585.94;10531636;28;20182;-76
2021/04/17 19:27:13;;;;;;;1.73;1.53;;;;;;;5.79;100.00;99582.75;10546439;28;20667;-76
2021/04/17 19:32:32;;;;;;;5.07;2.10;;;;;;;5.81;100.00;99591.38;10545241;28;20198;-75
2021/04/17 19:37:51;;;;;;;1.73;1.27;;;;;;;5.86;100.00;99589.19;10530517;28;20209;-75
2021/04/17 19:43:10;;;;;;;1.50;1.23;;;;;;;5.92;100.00;99592.44;10546100;28;20169;-76
2021/04/17 19:48:29;;;;;;;4.27;2.57;;;;;;;5.96;100.00;99585.91;10544524;28;20185;-76
2021/04/17 19:53:48;;;;;;;1.73;1.53;;;;;;;5.89;100.00;99593.13;10545399;28;20204;-74
2021/04/17 19:59:07;;;;;;;4.00;2.13;;;;;;;5.87;100.00;99589.97;10545110;28;20210;-75
2021/04/17 20:04:27;;;;;;;3.27;2.07;;;;;;;5.88;100.00;99592.34;10543773;28;20240;-76
2021/04/17 20:09:46;;;;;;;1.73;1.33;;;;;;;6.09;100.00;99581.88;10528242;28;20636;-75
2021/04/17 20:15:05;;;;;;;2.70;2.20;;;;;;;5.90;100.00;99590.03;10529471;28;20637;-76
2021/04/17 20:20:25;;;;;;;3.00;2.33;;;;;;;5.81;100.00;99589.47;10542956;28;20667;-77
2021/04/17 20:25:45;;;;;;;8.63;2.80;;;;;;;5.84;100.00;99587.97;10544318;28;20177;-77
2021/04/17 20:31:04;;;;;;;4.57;1.60;;;;;;;5.86;100.00;99589.19;10542674;28;20190;-76
2021/04/17 20:36:24;;;;;;;3.70;1.50;;;;;;;5.89;100.00;99593.94;10528613;28;20170;-76
2021/04/17 20:41:44;;;;;;;1.63;1.53;;;;;;;5.91;100.00;99597.09;10543289;28;20201;-75
2021/04/17 20:47:03;;;;;;;4.13;1.87;;;;;;;5.93;100.00;99594.03;10542184;28;20209;-77
2021/04/17 20:52:22;;;;;;;1.67;1.50;;;;;;;5.88;100.00;99591.53;10543071;28;20186;-76
2021/04/17 20:57:44;;;;;;;2.40;1.47;;;;;;;5.84;100.00;99588.75;10542961;28;20210;-77
2021/04/17 21:03:04;;;;;;;2.37;1.60;;;;;;;5.83;100.00;99587.16;10541544;28;20182;-77
2021/04/17 21:08:24;;;;;;;2.30;2.10;;;;;;;5.87;100.00;99587.22;10527263;28;20178;-76
2021/04/17 21:13:43;;;;;;;7.43;1.73;;;;;;;5.89;100.00;99580.28;10526918;28;20201;-75
2021/04/17 21:19:02;;;;;;;8.10;1.77;;;;;;;5.92;100.00;99578.78;10540205;28;20201;-76
2021/04/17 21:24:21;;;;;;;2.50;1.37;;;;;;;5.94;100.00;99574.53;10542019;28;20241;-76
2021/04/17 21:29:40;;;;;;;2.27;1.60;;;;;;;5.91;100.00;99575.25;10525968;28;20218;-76
2021/04/17 21:34:59;;;;;;;1.53;1.43;;;;;;;5.85;100.00;99576.69;10540381;28;20166;-76
2021/04/17 21:40:18;;;;;;;3.63;1.87;;;;;;;5.84;100.00;99566.91;10525361;28;20213;-76
2021/04/17 21:45:37;;;;;;;1.43;1.30;;;;;;;5.86;100.00;99574.72;10541229;28;20194;-76
2021/04/17 21:50:56;;;;;;;3.37;2.17;;;;;;;5.89;100.00;99571.28;10540536;28;20178;-76
2021/04/17 21:56:15;;;;;;;2.20;1.73;;;;;;;5.87;100.00;99559.94;10540775;28;20688;-76
2021/04/17 22:01:34;;;;;;;2.67;2.47;;;;;;;5.80;100.00;99557.84;10539312;28;20539;-76
2021/04/17 22:06:53;;;;;;;2.77;1.80;;;;;;;5.70;100.00;99558.38;10524403;28;20558;-76
2021/04/17 22:12:12;;;;;;;7.63;1.80;;;;;;;5.63;100.00;99558.22;10540139;28;20170;-76
2021/04/17 22:17:31;;;;;;;1.67;1.57;;;;;;;5.59;100.00;99562.00;10538723;28;20293;-73
2021/04/17 22:22:50;;;;;;;3.30;2.80;;;;;;;5.62;100.00;99551.16;10524550;28;20215;-77
2021/04/17 22:28:10;;;;;;;2.60;2.40;;;;;;;5.57;100.00;99545.97;10539427;28;20217;-75
2021/04/17 22:33:29;;;;;;;3.13;2.87;;;;;;;5.50;100.00;99553.22;10522216;28;20170;-75
2021/04/17 22:38:48;;;;;;;3.50;1.70;;;;;;;5.44;100.00;99551.91;10539147;28;20210;-75
2021/04/17 22:44:07;;;;;;;1.70;1.50;;;;;;;5.44;100.00;99551.09;10523917;28;20269;-75
2021/04/17 22:49:26;;;;;;;4.20;1.33;;;;;;;5.43;100.00;99544.06;10537778;28;20213;-75
2021/04/17 22:54:45;;;;;;;3.07;1.80;;;;;;;5.44;100.00;99538.25;10539132;28;20260;-76
2021/04/17 23:00:12;;;;;;;1.63;1.53;;;;;;;5.40;100.00;99536.59;10523219;28;20205;-75
2021/04/17 23:05:32;;;;;;;1.87;1.57;;;;;;;5.35;100.00;99540.38;10537619;28;20178;-75
2021/04/17 23:10:51;;;;;;;3.67;2.60;;;;;;;5.32;100.00;99538.34;10538922;28;20651;-76
2021/04/17 23:16:10;;;;;;;3.10;1.90;;;;;;;5.24;100.00;99533.88;10521941;28;20174;-76
2021/04/17 23:21:29;;;;;;;4.40;1.87;;;;;;;5.22;100.00;99536.16;10523319;28;20178;-76
2021/04/17 23:26:47;;;;;;;4.40;2.63;;;;;;;5.29;100.00;99532.81;10538172;28;20229;-75
2021/04/17 23:32:08;;;;;;;3.47;2.17;;;;;;;5.19;100.00;99531.44;10521669;28;20620;-76
2021/04/17 23:37:28;;;;;;;2.87;2.30;;;;;;;5.33;100.00;99525.53;10537951;28;20205;-76
2021/04/17 23:42:47;;;;;;;3.43;3.00;;;;;;;5.13;100.00;99524.63;10539535;28;20668;-77
2021/04/17 23:48:06;;;;;;;1.97;1.87;;;;;;;5.09;100.00;99518.31;10529008;28;20655;-76
2021/04/17 23:53:25;;;;;;;2.83;2.63;;;;;;;5.08;100.00;99513.22;10545673;28;20182;-75
2021/04/17 23:58:44;;;;;;;2.90;2.70;;;;;;;5.25;100.00;99507.41;10545192;28;20660;-76
